createdAt,value
2018-11-03T00:01:09.420Z,6.77
2018-11-03T00:03:37.743Z,8.27
2018-11-03T00:06:06.097Z,7.03
2018-11-03T00:08:34.431Z,7.10
2018-11-03T00:11:02.941Z,7.80
2018-11-03T00:13:31.315Z,8.23
2018-11-03T00:15:59.712Z,7.50
2018-11-03T00:18:28.116Z,7.53
2018-11-03T00:20:56.472Z,7.03
2018-11-03T00:23:24.991Z,7.27
2018-11-03T00:25:53.334Z,7.70
2018-11-03T00:28:21.715Z,9.47
2018-11-03T00:30:50.024Z,8.17
2018-11-03T00:33:18.340Z,7.90
2018-11-03T00:35:46.666Z,7.77
2018-11-03T00:38:15.027Z,6.77
2018-11-03T00:40:43.472Z,6.37
2018-11-03T00:43:11.929Z,6.73
2018-11-03T00:45:40.244Z,5.87
2018-11-03T00:48:08.637Z,5.93
2018-11-03T00:50:37.056Z,5.80
2018-11-03T00:53:05.795Z,6.97
2018-11-03T00:55:34.280Z,7.13
2018-11-03T00:58:03.504Z,6.70
2018-11-03T01:00:31.983Z,5.80
2018-11-03T01:03:00.292Z,6.20
2018-11-03T01:05:28.634Z,5.80
2018-11-03T01:07:57.071Z,8.70
2018-11-03T01:10:25.387Z,5.67
2018-11-03T01:12:53.863Z,6.60
2018-11-03T01:15:22.232Z,5.77
2018-11-03T01:17:50.644Z,6.07
2018-11-03T01:20:19.002Z,5.50
2018-11-03T01:22:47.375Z,5.47
2018-11-03T01:25:15.763Z,6.60
2018-11-03T01:27:44.137Z,6.20
2018-11-03T01:30:14.343Z,6.57
2018-11-03T01:32:42.830Z,7.00
2018-11-03T01:35:11.338Z,6.40
2018-11-03T01:37:40.325Z,6.40
2018-11-03T01:40:09.925Z,6.47
2018-11-03T01:42:38.595Z,6.17
2018-11-03T01:45:07.108Z,5.73
2018-11-03T01:47:35.891Z,6.33
2018-11-03T01:50:06.292Z,6.60
2018-11-03T01:52:35.313Z,6.43
2018-11-03T01:55:03.880Z,7.07
2018-11-03T01:57:32.352Z,7.30
2018-11-03T02:00:00.721Z,6.37
2018-11-03T02:02:29.019Z,6.60
2018-11-03T02:04:57.320Z,6.83
2018-11-03T02:07:25.719Z,6.70
2018-11-03T02:09:54.160Z,8.00
2018-11-03T02:12:22.480Z,6.30
2018-11-03T02:14:50.874Z,8.03
2018-11-03T02:17:19.245Z,6.97
2018-11-03T02:19:47.557Z,7.57
2018-11-03T02:22:15.952Z,6.17
2018-11-03T02:24:44.330Z,7.30
2018-11-03T02:27:12.695Z,8.47
2018-11-03T02:29:41.018Z,8.37
2018-11-03T02:32:09.391Z,7.20
2018-11-03T02:34:37.721Z,7.03
2018-11-03T02:37:06.068Z,7.70
2018-11-03T02:39:34.438Z,8.43
2018-11-03T02:42:02.773Z,7.10
2018-11-03T02:44:31.172Z,8.10
2018-11-03T02:46:59.529Z,7.60
2018-11-03T02:49:27.912Z,7.93
2018-11-03T02:51:56.252Z,6.83
2018-11-03T02:54:24.587Z,7.77
2018-11-03T02:56:53.030Z,6.90
2018-11-03T02:59:21.440Z,6.87
2018-11-03T03:01:49.835Z,8.10
2018-11-03T03:04:18.251Z,6.70
2018-11-03T03:06:46.579Z,6.27
2018-11-03T03:09:15.116Z,6.10
2018-11-03T03:11:43.448Z,6.60
2018-11-03T03:14:11.824Z,6.87
2018-11-03T03:16:40.262Z,8.00
2018-11-03T03:19:08.655Z,6.00
2018-11-03T03:21:37.106Z,6.73
2018-11-03T03:24:05.444Z,6.37
2018-11-03T03:26:33.803Z,6.27
2018-11-03T03:29:02.230Z,6.97
2018-11-03T03:31:30.541Z,6.80
2018-11-03T03:33:58.889Z,6.90
2018-11-03T03:36:27.163Z,6.60
2018-11-03T03:38:55.512Z,7.57
2018-11-03T03:41:24.051Z,6.57
2018-11-03T03:43:52.320Z,6.70
2018-11-03T03:46:20.707Z,7.17
2018-11-03T03:48:49.133Z,6.80
2018-11-03T03:51:17.446Z,7.03
2018-11-03T03:53:45.921Z,6.90
2018-11-03T03:56:14.298Z,7.73
2018-11-03T03:58:42.621Z,6.73
2018-11-03T04:01:10.992Z,6.83
2018-11-03T04:03:39.344Z,7.73
2018-11-03T04:06:07.723Z,6.97
2018-11-03T04:08:36.083Z,8.17
2018-11-03T04:11:04.765Z,7.83
2018-11-03T04:13:33.164Z,7.13
2018-11-03T04:16:01.502Z,8.70
2018-11-03T04:18:29.796Z,9.00
2018-11-03T04:20:58.303Z,9.27
2018-11-03T04:23:26.664Z,9.40
2018-11-03T04:25:55.052Z,7.83
2018-11-03T04:28:23.398Z,9.30
2018-11-03T04:30:51.705Z,8.70
2018-11-03T04:33:20.042Z,9.03
2018-11-03T04:35:48.436Z,9.90
2018-11-03T04:38:16.706Z,8.83
2018-11-03T04:40:45.068Z,11.13
2018-11-03T04:43:13.412Z,9.70
2018-11-03T04:45:41.802Z,10.10
2018-11-03T04:48:10.087Z,9.73
2018-11-03T04:50:38.468Z,10.00
2018-11-03T04:53:06.893Z,9.20
2018-11-03T04:55:35.227Z,8.73
2018-11-03T04:58:03.496Z,9.70
2018-11-03T05:00:31.907Z,9.57
2018-11-03T05:03:00.244Z,9.47
2018-11-03T05:05:28.564Z,10.00
2018-11-03T05:07:56.945Z,8.90
2018-11-03T05:10:25.300Z,10.33
2018-11-03T05:12:53.631Z,10.30
2018-11-03T05:15:21.960Z,12.73
2018-11-03T05:17:50.327Z,9.63
2018-11-03T05:20:18.792Z,10.53
2018-11-03T05:22:47.279Z,10.87
2018-11-03T05:25:15.716Z,10.10
2018-11-03T05:27:44.188Z,10.47
2018-11-03T05:30:12.562Z,10.03
2018-11-03T05:32:40.930Z,10.63
2018-11-03T05:35:09.221Z,11.83
2018-11-03T05:37:38.094Z,11.57
2018-11-03T05:40:06.653Z,10.37
2018-11-03T05:42:35.052Z,10.83
2018-11-03T05:45:03.539Z,9.80
2018-11-03T05:47:31.976Z,11.77
2018-11-03T05:50:00.415Z,11.73
2018-11-03T05:52:28.861Z,11.93
2018-11-03T05:54:57.192Z,17.33
2018-11-03T05:57:25.530Z,12.17
2018-11-03T05:59:53.865Z,11.83
2018-11-03T06:02:22.240Z,12.23
2018-11-03T06:04:50.567Z,12.50
2018-11-03T06:07:19.009Z,12.43
2018-11-03T06:09:47.316Z,12.80
2018-11-03T06:12:15.596Z,13.10
2018-11-03T06:14:43.989Z,12.73
2018-11-03T06:17:12.381Z,13.47
2018-11-03T06:19:40.759Z,13.50
2018-11-03T06:22:09.137Z,12.90
2018-11-03T06:24:37.543Z,13.53
2018-11-03T06:27:06.008Z,14.07
2018-11-03T06:29:34.421Z,12.60
2018-11-03T06:32:02.910Z,13.37
2018-11-03T06:34:31.285Z,13.40
2018-11-03T06:36:59.733Z,13.67
2018-11-03T06:39:28.083Z,14.20
2018-11-03T06:41:56.448Z,15.13
2018-11-03T06:44:24.821Z,12.70
2018-11-03T06:46:53.146Z,14.43
2018-11-03T06:49:22.707Z,14.27
2018-11-03T06:51:52.359Z,18.50
2018-11-03T06:54:21.086Z,14.17
2018-11-03T06:56:49.378Z,12.93
2018-11-03T06:59:18.532Z,12.77
2018-11-03T07:01:47.079Z,12.77
2018-11-03T07:04:15.516Z,12.93
2018-11-03T07:06:43.839Z,13.83
2018-11-03T07:09:13.136Z,13.80
2018-11-03T07:11:41.524Z,14.67
2018-11-03T07:14:10.369Z,13.30
2018-11-03T07:16:38.727Z,13.73
2018-11-03T07:19:07.218Z,14.93
2018-11-03T07:21:35.628Z,15.00
2018-11-03T07:24:04.052Z,14.70
2018-11-03T07:26:32.372Z,12.93
2018-11-03T07:29:00.810Z,14.33
2018-11-03T07:31:29.182Z,16.40
2018-11-03T07:33:57.784Z,14.40
2018-11-03T07:36:26.085Z,13.77
2018-11-03T07:38:54.536Z,13.70
2018-11-03T07:41:22.811Z,15.10
2018-11-03T07:43:51.083Z,13.90
2018-11-03T07:46:19.422Z,14.03
2018-11-03T07:48:48.138Z,14.53
2018-11-03T07:51:16.361Z,13.80
2018-11-03T07:53:44.655Z,14.83
2018-11-03T07:56:12.987Z,16.07
2018-11-03T07:58:41.355Z,14.87
2018-11-03T08:01:09.812Z,14.77
2018-11-03T08:03:38.187Z,15.80
2018-11-03T08:06:06.551Z,15.33
2018-11-03T08:08:34.882Z,14.53
2018-11-03T08:11:03.388Z,15.80
2018-11-03T08:13:31.733Z,14.50
2018-11-03T08:16:00.341Z,14.90
2018-11-03T08:18:28.703Z,15.37
2018-11-03T08:20:57.107Z,15.27
2018-11-03T08:23:25.437Z,15.17
2018-11-03T08:25:53.845Z,15.03
2018-11-03T08:28:22.132Z,14.60
2018-11-03T08:30:50.499Z,15.10
2018-11-03T08:33:18.882Z,15.47
2018-11-03T08:35:47.264Z,15.47
2018-11-03T08:38:15.711Z,15.50
2018-11-03T08:40:43.996Z,17.60
2018-11-03T08:43:12.332Z,15.50
2018-11-03T08:45:40.743Z,14.23
2018-11-03T08:48:09.200Z,15.43
2018-11-03T08:50:37.527Z,16.07
2018-11-03T08:53:05.873Z,15.73
2018-11-03T08:55:34.267Z,16.47
2018-11-03T08:58:02.583Z,15.30
2018-11-03T09:00:31.019Z,16.60
2018-11-03T09:02:59.406Z,15.70
2018-11-03T09:05:27.757Z,16.10
2018-11-03T09:07:56.147Z,15.07
2018-11-03T09:10:24.496Z,15.90
2018-11-03T09:12:53.030Z,15.80
2018-11-03T09:15:21.494Z,16.20
2018-11-03T09:17:49.703Z,15.63
2018-11-03T09:20:18.058Z,15.27
2018-11-03T09:22:46.496Z,15.27
2018-11-03T09:25:15.680Z,15.87
2018-11-03T09:27:44.410Z,16.30
2018-11-03T09:30:14.937Z,16.10
2018-11-03T09:32:43.339Z,14.83
2018-11-03T09:35:12.824Z,15.70
2018-11-03T09:37:41.224Z,15.90
2018-11-03T09:40:11.871Z,14.70
2018-11-03T09:42:40.360Z,14.50
2018-11-03T09:45:09.691Z,15.40
2018-11-03T09:47:37.932Z,16.07
2018-11-03T09:50:07.176Z,16.00
2018-11-03T09:52:35.519Z,14.53
2018-11-03T09:55:03.904Z,14.60
2018-11-03T09:57:32.271Z,15.40
2018-11-03T10:00:00.623Z,15.40
2018-11-03T10:02:29.002Z,15.20
2018-11-03T10:04:57.419Z,14.20
2018-11-03T10:07:25.719Z,15.97
2018-11-03T10:09:54.147Z,16.23
2018-11-03T10:12:22.535Z,16.50
2018-11-03T10:14:50.925Z,13.87
2018-11-03T10:17:19.463Z,15.13
2018-11-03T10:19:47.792Z,14.47
2018-11-03T10:22:16.158Z,14.33
2018-11-03T10:24:44.599Z,14.20
2018-11-03T10:27:12.931Z,15.40
2018-11-03T10:29:41.269Z,15.07
2018-11-03T10:32:09.613Z,14.27
2018-11-03T10:34:38.020Z,17.00
2018-11-03T10:37:06.543Z,15.47
2018-11-03T10:39:34.976Z,14.67
2018-11-03T10:42:03.393Z,13.77
2018-11-03T10:44:31.827Z,14.20
2018-11-03T10:47:00.156Z,15.50
2018-11-03T10:49:28.617Z,16.63
2018-11-03T10:51:56.967Z,14.13
2018-11-03T10:54:25.503Z,14.33
2018-11-03T10:56:53.907Z,14.50
2018-11-03T10:59:22.483Z,13.50
2018-11-03T11:01:55.931Z,14.70
2018-11-03T11:04:29.588Z,13.17
2018-11-03T11:07:02.970Z,13.23
2018-11-03T11:09:35.420Z,13.23
2018-11-03T11:12:10.147Z,12.80
2018-11-03T11:14:38.585Z,13.93
2018-11-03T11:17:07.031Z,13.53
2018-11-03T11:19:35.341Z,13.73
2018-11-03T11:22:03.697Z,12.77
2018-11-03T11:24:32.190Z,12.47
2018-11-03T11:27:00.439Z,12.50
2018-11-03T11:29:28.796Z,12.63
2018-11-03T11:31:57.260Z,13.40
2018-11-03T11:34:25.645Z,11.53
2018-11-03T11:36:53.966Z,10.87
2018-11-03T11:39:22.297Z,11.93
2018-11-03T11:41:50.671Z,11.27
2018-11-03T11:44:19.088Z,12.30
2018-11-03T11:46:47.457Z,10.83
2018-11-03T11:49:15.860Z,10.10
2018-11-03T11:51:44.232Z,10.80
2018-11-03T11:54:12.752Z,10.63
2018-11-03T11:56:41.116Z,10.43
2018-11-03T11:59:09.589Z,12.27
2018-11-03T12:01:38.114Z,10.87
2018-11-03T12:04:06.676Z,11.37
2018-11-03T12:06:35.026Z,11.37
2018-11-03T12:09:03.515Z,10.47
2018-11-03T12:11:31.975Z,9.63
2018-11-03T12:14:00.311Z,16.53
2018-11-03T12:16:28.697Z,10.13
2018-11-03T12:18:57.010Z,11.03
2018-11-03T12:21:25.356Z,9.30
2018-11-03T12:23:53.710Z,9.60
2018-11-03T12:26:22.067Z,9.20
2018-11-03T12:28:50.447Z,10.33
2018-11-03T12:31:18.789Z,9.93
2018-11-03T12:33:47.200Z,9.50
2018-11-03T12:36:15.655Z,9.23
2018-11-03T12:38:44.387Z,10.20
2018-11-03T12:41:12.704Z,9.90
2018-11-03T12:43:41.040Z,9.37
2018-11-03T12:46:09.497Z,9.50
2018-11-03T12:48:37.975Z,9.37
2018-11-03T12:51:06.398Z,9.10
2018-11-03T12:53:34.714Z,9.30
2018-11-03T12:56:03.020Z,9.27
2018-11-03T12:58:31.344Z,9.53
2018-11-03T13:00:59.688Z,9.90
2018-11-03T13:03:27.997Z,9.53
2018-11-03T13:05:56.383Z,8.63
2018-11-03T13:08:24.827Z,8.67
2018-11-03T13:10:53.143Z,9.30
2018-11-03T13:13:21.587Z,7.60
2018-11-03T13:15:49.979Z,9.30
2018-11-03T13:18:18.357Z,8.63
2018-11-03T13:20:46.798Z,8.40
2018-11-03T13:23:15.178Z,8.90
2018-11-03T13:25:43.486Z,8.40
2018-11-03T13:28:11.866Z,8.57
2018-11-03T13:30:40.262Z,8.90
2018-11-03T13:33:08.607Z,7.67
2018-11-03T13:35:36.993Z,10.43
2018-11-03T13:38:05.513Z,9.03
2018-11-03T13:40:33.910Z,8.63
2018-11-03T13:43:02.346Z,8.93
2018-11-03T13:45:30.781Z,7.93
2018-11-03T13:47:59.255Z,8.13
2018-11-03T13:50:27.590Z,8.63
2018-11-03T13:52:56.016Z,8.17
2018-11-03T13:55:24.360Z,8.93
2018-11-03T13:57:52.740Z,9.50
2018-11-03T14:00:21.097Z,8.43
2018-11-03T14:02:50.252Z,9.03
2018-11-03T14:05:18.617Z,9.03
2018-11-03T14:07:46.971Z,9.73
2018-11-03T14:10:16.427Z,9.67
2018-11-03T14:12:45.655Z,8.63
2018-11-03T14:15:15.485Z,16.07
2018-11-03T14:17:43.853Z,9.30
2018-11-03T14:20:13.297Z,9.47
2018-11-03T14:22:42.130Z,9.53
2018-11-03T14:25:12.163Z,9.83
2018-11-03T14:27:41.136Z,10.47
2018-11-03T14:30:10.263Z,10.97
2018-11-03T14:32:38.681Z,10.60
2018-11-03T14:35:07.948Z,10.30
2018-11-03T14:37:44.929Z,10.70
2018-11-03T14:40:24.506Z,10.77
2018-11-03T14:42:52.999Z,11.27
2018-11-03T14:45:21.511Z,11.50
2018-11-03T14:47:49.870Z,11.03
2018-11-03T14:50:18.261Z,11.93
2018-11-03T14:52:46.663Z,11.10
2018-11-03T14:55:15.015Z,11.40
2018-11-03T14:57:43.323Z,11.80
2018-11-03T15:00:15.392Z,13.23
2018-11-03T15:02:43.872Z,12.00
2018-11-03T15:05:12.820Z,12.00
2018-11-03T15:07:41.342Z,13.77
2018-11-03T15:10:11.611Z,12.60
2018-11-03T15:12:40.689Z,11.03
2018-11-03T15:15:11.071Z,13.03
2018-11-03T15:17:39.411Z,12.17
2018-11-03T15:20:08.519Z,11.43
2018-11-03T15:22:37.015Z,13.20
2018-11-03T15:25:06.223Z,12.63
2018-11-03T15:27:34.664Z,11.57
2018-11-03T15:30:02.960Z,12.30
2018-11-03T15:32:31.419Z,11.77
2018-11-03T15:35:00.157Z,11.10
2018-11-03T15:37:28.475Z,11.63
2018-11-03T15:39:56.773Z,12.73
2018-11-03T15:42:25.174Z,12.77
2018-11-03T15:44:53.598Z,12.53
2018-11-03T15:47:22.028Z,12.53
2018-11-03T15:49:50.588Z,12.70
2018-11-03T15:52:18.988Z,12.97
2018-11-03T15:54:47.718Z,13.47
2018-11-03T15:57:16.086Z,11.90
2018-11-03T15:59:44.477Z,17.00
2018-11-03T16:02:12.961Z,12.90
2018-11-03T16:04:41.436Z,12.10
2018-11-03T16:07:09.811Z,12.90
2018-11-03T16:09:38.205Z,13.07
2018-11-03T16:12:07.327Z,13.60
2018-11-03T16:14:35.675Z,13.03
2018-11-03T16:17:04.119Z,13.67
2018-11-03T16:19:32.649Z,12.87
2018-11-03T16:22:01.085Z,13.43
2018-11-03T16:24:29.561Z,12.80
2018-11-03T16:26:58.013Z,12.30
2018-11-03T16:29:27.799Z,13.60
2018-11-03T16:31:56.360Z,13.87
2018-11-03T16:34:24.846Z,12.23
2018-11-03T16:36:53.313Z,15.43
2018-11-03T16:39:21.716Z,12.57
2018-11-03T16:41:50.198Z,13.20
2018-11-03T16:44:18.597Z,14.33
2018-11-03T16:46:47.221Z,14.23
2018-11-03T16:49:18.248Z,12.70
2018-11-03T16:51:46.769Z,13.77
2018-11-03T16:54:15.295Z,13.37
2018-11-03T16:56:44.398Z,13.23
2018-11-03T16:59:12.781Z,12.87
2018-11-03T17:01:41.084Z,12.87
2018-11-03T17:04:09.631Z,12.23
2018-11-03T17:06:38.085Z,12.80
2018-11-03T17:09:07.504Z,13.40
2018-11-03T17:11:35.952Z,13.23
2018-11-03T17:14:04.548Z,13.53
2018-11-03T17:16:32.989Z,13.77
2018-11-03T17:19:01.488Z,13.30
2018-11-03T17:21:29.955Z,13.50
2018-11-03T17:23:58.330Z,13.90
2018-11-03T17:26:26.751Z,14.87
2018-11-03T17:28:55.525Z,15.07
2018-11-03T17:31:23.987Z,13.27
2018-11-03T17:33:52.469Z,13.47
2018-11-03T17:36:20.957Z,13.70
2018-11-03T17:38:49.387Z,13.10
2018-11-03T17:41:17.812Z,14.93
2018-11-03T17:43:46.298Z,14.63
2018-11-03T17:46:14.791Z,13.27
2018-11-03T17:48:43.204Z,13.30
2018-11-03T17:51:11.631Z,15.03
2018-11-03T17:53:40.040Z,19.67
2018-11-03T17:56:08.389Z,19.43
2018-11-03T17:58:36.784Z,19.97
2018-11-03T18:01:05.442Z,15.90
2018-11-03T18:03:33.747Z,16.13
2018-11-03T18:06:02.121Z,14.47
2018-11-03T18:08:30.555Z,14.77
2018-11-03T18:10:58.985Z,13.53
2018-11-03T18:13:27.474Z,13.83
2018-11-03T18:15:55.974Z,14.27
2018-11-03T18:18:24.535Z,13.77
2018-11-03T18:20:52.967Z,13.27
2018-11-03T18:23:21.392Z,13.33
2018-11-03T18:25:49.876Z,12.63
2018-11-03T18:28:18.391Z,12.23
2018-11-03T18:30:46.918Z,12.60
2018-11-03T18:33:15.208Z,12.27
2018-11-03T18:35:43.598Z,12.83
2018-11-03T18:38:11.970Z,14.17
2018-11-03T18:40:40.429Z,13.70
2018-11-03T18:43:08.760Z,13.57
2018-11-03T18:45:37.276Z,14.17
2018-11-03T18:48:06.005Z,11.70
2018-11-03T18:50:34.383Z,12.90
2018-11-03T18:53:03.601Z,13.00
2018-11-03T18:55:32.046Z,12.60
2018-11-03T18:58:00.500Z,12.43
2018-11-03T19:00:28.907Z,12.80
2018-11-03T19:02:57.345Z,12.97
2018-11-03T19:05:25.708Z,12.90
2018-11-03T19:07:54.104Z,15.70
2018-11-03T19:10:22.476Z,13.87
2018-11-03T19:12:50.911Z,13.80
2018-11-03T19:15:19.356Z,13.60
2018-11-03T19:17:47.812Z,13.90
2018-11-03T19:20:16.473Z,13.60
2018-11-03T19:22:44.895Z,14.00
2018-11-03T19:25:14.091Z,13.23
2018-11-03T19:27:42.543Z,13.50
2018-11-03T19:30:12.220Z,13.33
2018-11-03T19:32:42.211Z,12.83
2018-11-03T19:35:10.704Z,13.40
2018-11-03T19:37:39.743Z,14.00
2018-11-03T19:40:09.556Z,12.90
2018-11-03T19:42:38.344Z,35.53
2018-11-03T19:45:07.551Z,16.03
2018-11-03T19:47:36.009Z,11.63
2018-11-03T19:50:05.567Z,12.17
2018-11-03T19:52:34.119Z,13.43
2018-11-03T19:55:02.434Z,12.10
2018-11-03T19:57:30.864Z,12.67
2018-11-03T19:59:59.285Z,12.93
2018-11-03T20:02:27.636Z,13.30
2018-11-03T20:04:56.009Z,12.07
2018-11-03T20:07:24.409Z,14.03
2018-11-03T20:09:52.892Z,13.07
2018-11-03T20:12:21.291Z,14.83
2018-11-03T20:14:49.788Z,12.67
2018-11-03T20:17:18.120Z,13.33
2018-11-03T20:19:46.574Z,13.33
2018-11-03T20:22:14.918Z,13.70
2018-11-03T20:24:43.296Z,15.80
2018-11-03T20:27:11.692Z,14.00
2018-11-03T20:29:40.108Z,12.17
2018-11-03T20:32:08.728Z,14.10
2018-11-03T20:34:37.043Z,13.40
2018-11-03T20:37:05.987Z,14.40
2018-11-03T20:39:34.498Z,14.47
2018-11-03T20:42:02.913Z,13.50
2018-11-03T20:44:31.409Z,14.70
2018-11-03T20:46:59.900Z,15.60
2018-11-03T20:49:28.310Z,13.40
2018-11-03T20:51:56.642Z,14.93
2018-11-03T20:54:24.982Z,14.30
2018-11-03T20:56:53.385Z,13.90
2018-11-03T20:59:21.976Z,14.10
2018-11-03T21:01:50.366Z,13.57
2018-11-03T21:04:18.695Z,14.60
2018-11-03T21:06:47.153Z,14.40
2018-11-03T21:09:15.584Z,15.60
2018-11-03T21:11:44.089Z,13.53
2018-11-03T21:14:12.395Z,14.10
2018-11-03T21:16:40.882Z,14.77
2018-11-03T21:19:09.265Z,13.57
2018-11-03T21:21:38.528Z,21.47
2018-11-03T21:24:06.947Z,23.23
2018-11-03T21:26:35.202Z,17.40
2018-11-03T21:29:03.533Z,13.67
2018-11-03T21:31:31.886Z,14.17
2018-11-03T21:34:00.354Z,15.10
2018-11-03T21:36:28.689Z,13.53
2018-11-03T21:38:57.156Z,14.33
2018-11-03T21:41:25.667Z,16.00
2018-11-03T21:43:54.004Z,14.37
2018-11-03T21:46:22.435Z,14.60
2018-11-03T21:48:50.815Z,13.30
2018-11-03T21:51:19.206Z,15.33
2018-11-03T21:53:47.618Z,14.53
2018-11-03T21:56:16.171Z,13.80
2018-11-03T21:58:44.642Z,15.13
2018-11-03T22:01:13.033Z,15.87
2018-11-03T22:03:42.554Z,16.60
2018-11-03T22:06:10.900Z,15.23
2018-11-03T22:08:39.216Z,15.17
2018-11-03T22:11:07.580Z,15.73
2018-11-03T22:13:36.017Z,14.77
2018-11-03T22:16:04.504Z,13.63
2018-11-03T22:18:33.012Z,15.27
2018-11-03T22:21:01.544Z,14.73
2018-11-03T22:23:30.061Z,14.37
2018-11-03T22:25:58.469Z,13.60
2018-11-03T22:28:26.823Z,13.93
2018-11-03T22:30:55.348Z,16.37
2018-11-03T22:33:23.772Z,16.57
2018-11-03T22:35:52.140Z,15.50
2018-11-03T22:38:20.934Z,15.20
2018-11-03T22:44:18.955Z,15.43
2018-11-03T22:47:16.217Z,15.77
2018-11-03T22:50:05.455Z,16.53
2018-11-03T23:10:16.936Z,15.00
2018-11-03T23:23:11.374Z,15.37
2018-11-03T23:25:39.889Z,15.93
2018-11-03T23:28:08.368Z,24.20
2018-11-03T23:30:36.826Z,14.57
2018-11-03T23:33:05.301Z,15.20
2018-11-03T23:35:33.873Z,15.53
2018-11-03T23:38:02.321Z,16.23
2018-11-03T23:40:30.801Z,15.00
2018-11-03T23:42:59.163Z,14.37
2018-11-03T23:45:27.669Z,14.73
2018-11-03T23:47:56.288Z,13.97
2018-11-03T23:50:24.845Z,14.40
2018-11-03T23:52:53.180Z,18.40
2018-11-03T23:55:21.703Z,32.90
2018-11-03T23:57:50.083Z,15.63
